Terminal Aerodrome Forecast
Issued by NWS

Home | Current Version | Previous Version | Text Only | Print | Product List | Glossary On
Versions: 1 2 3 4 5 6 7 8 9 10 11 12 13 14
000
FTUS46 KMTR 032345
TAFMRY
TAF
KMRY 032345Z 0400/0424 30008KT P6SM FEW010 BKN120
     FM040100 23005KT P6SM BKN010 BKN100
     FM040400 24003KT P6SM OVC009
     FM040800 VRB03KT P6SM OVC006
     FM041800 29008KT P6SM SCT012=

USA.gov is the U.S. government's official web portal to all federal, state and local government web resources and services.